Tina-c — 2APY2 — position and weather

sailwx.info

Track history (hours):
 
Tides and Currents Weather Stations Pressure Air Temp Water Temp Dewpoint Dewpoint Depression Visibility Wind Speed Wind Dir Waves Ship Positions

Tina-c

Last reported at 2015-Apr-28 12:32 UTC. Time now 2015-Apr-28 15:57 UTC.
Position N 38°18' W 010°00'.

Length 99 m; draft 6.6 m.

Type: Cargo ship. MMSI: 235061987.

Date/timePositionNaut miles runAvg speedWind from/ knotsBaromVisibWave heightAir tempDewpointWater temp
2015-Apr-28 12:32N 38°18' W 010°00'13 9.9
2015-Apr-28 11:14N 38°31' W 010°04'1010.2
2015-Apr-28 10:12N 38°41' W 010°07'17 9.8
2015-Apr-28 08:31N 38°57' W 010°07'  
2015-Apr-24 12:33N 50°35' E 000°17'9 9.2
2015-Apr-24 11:32N 50°37' E 000°32'1010.2
2015-Apr-24 10:33N 50°43' E 000°45'1211.9
2015-Apr-24 09:31N 50°50' E 001°01'1312.4
2015-Apr-24 08:30N 50°58' E 001°16'1111.7
2015-Apr-24 07:33N 51°05' E 001°29'1010.1
2015-Apr-24 06:33N 51°12' E 001°42'9 9.2
2015-Apr-24 05:33N 51°19' E 001°50'9 8.9
2015-Apr-24 04:33N 51°27' E 001°56'10 9.9
2015-Apr-24 03:33N 51°35' E 002°07'1010.4
2015-Apr-24 02:33N 51°42' E 002°18'11311.1
2015-Apr-23 16:23N 53°07' E 004°20'2411.5
2015-Apr-23 14:16N 53°28' E 004°39'911.7
2015-Apr-23 13:32N 53°32' E 004°52'1111.0
2015-Apr-23 12:33N 53°35' E 005°10'10 9.9
2015-Apr-23 11:33N 53°39' E 005°26'9 9.3
2015-Apr-23 10:33N 53°41' E 005°40'10 9.4
2015-Apr-23 09:28N 53°45' E 005°57'4811.2
2015-Apr-23 05:10N 53°58' E 007°15'610.0
2015-Apr-23 04:33N 53°59' E 007°25'1111.2
2015-Apr-23 03:33N 54°02' E 007°44'1010.3
2015-Apr-23 02:33N 54°01' E 008°01'10 9.9
2015-Apr-23 01:31N 53°60' E 008°19'8 8.4
2015-Apr-23 00:33N 53°58' E 008°32'7 7.3
2015-Apr-22 23:33N 53°54' E 008°42'10 9.8
2015-Apr-22 22:33N 53°51' E 008°58'1212.1
2015-Apr-22 21:33N 53°52' E 009°18'1313.0
2015-Apr-22 20:33N 53°41' E 009°31'1212.2
2015-Apr-22 19:33N 53°34' E 009°47'7 7.0
2015-Apr-22 18:34N 53°30' E 009°57'0 0.0
2015-Apr-22 17:33N 53°30' E 009°57'0 0.0
2015-Apr-22 16:33N 53°30' E 009°57'0 0.0
2015-Apr-22 15:33N 53°30' E 009°57'0 0.0
2015-Apr-22 14:33N 53°30' E 009°57'0 0.0
2015-Apr-22 13:33N 53°30' E 009°57'0 0.0
2015-Apr-22 12:33N 53°30' E 009°57'0 0.0
2015-Apr-22 11:33N 53°30' E 009°57'0 0.0
2015-Apr-22 10:33N 53°30' E 009°57'0 0.0
2015-Apr-22 09:33N 53°30' E 009°57'0 0.0
2015-Apr-22 08:34N 53°30' E 009°57'3 2.8
2015-Apr-22 07:33N 53°32' E 009°54'9 9.1
2015-Apr-22 06:33N 53°34' E 009°39'1111.3
2015-Apr-22 05:33N 53°43' E 009°28'1212.3
2015-Apr-22 04:33N 53°53' E 009°14'1312.5
2015-Apr-22 03:33N 53°50' E 008°53'1211.7
2015-Apr-22 02:33N 53°57' E 008°37'1212.6
2015-Apr-22 01:33N 53°59' E 008°16'1211.9
2015-Apr-22 00:33N 54°02' E 007°56'1312.9
2015-Apr-21 23:33N 54°08' E 007°37'1211.4
2015-Apr-21 22:32N 54°09' E 007°17'4212.4
2015-Apr-21 19:09N 54°07' E 006°05'711.5
2015-Apr-21 18:33N 54°07' E 005°54'1111.0
2015-Apr-21 17:33N 54°05' E 005°35'1110.7
2015-Apr-21 16:33N 54°04' E 005°17'1210.7
2015-Apr-21 15:27N 54°02' E 004°57'14211.7
2015-Apr-21 03:19N 53°37' E 000°60'911.9
2015-Apr-21 02:33N 53°35' E 000°45'1211.9
2015-Apr-21 01:34N 53°33' E 000°25'1110.6
2015-Apr-21 00:34N 53°33' E 000°07'1211.8
2015-Apr-20 23:34N 53°38' W 000°11'7 7.0
2015-Apr-20 22:32N 53°44' W 000°16'0 0.3
2015-Apr-20 21:32N 53°45' W 000°16'0 0.0
2015-Apr-20 20:32N 53°45' W 000°16'0 0.0
2015-Apr-20 19:32N 53°45' W 000°16'0 0.0
2015-Apr-20 18:32N 53°45' W 000°16'0 0.0
2015-Apr-20 17:32N 53°45' W 000°16'0 0.0
2015-Apr-20 16:32N 53°45' W 000°16'0 0.0
2015-Apr-20 15:32N 53°45' W 000°16'0 0.0
2015-Apr-20 14:29N 53°45' W 000°16'0 0.0
2015-Apr-20 13:32N 53°45' W 000°16'0 0.0
2015-Apr-20 12:32N 53°45' W 000°16'0 0.0
2015-Apr-20 11:32N 53°45' W 000°16'0 0.0
2015-Apr-20 10:32N 53°45' W 000°16'0 0.0
2015-Apr-20 09:32N 53°45' W 000°16'0 0.0
2015-Apr-20 08:32N 53°45' W 000°16'0 0.0
2015-Apr-20 07:32N 53°45' W 000°16'0 0.0
2015-Apr-20 06:32N 53°45' W 000°16'0 0.0
2015-Apr-20 05:32N 53°45' W 000°16'0 0.0
2015-Apr-20 04:32N 53°45' W 000°16'0 0.0
2015-Apr-20 03:32N 53°45' W 000°16'0 0.0
2015-Apr-20 02:26N 53°45' W 000°16'0 0.0
2015-Apr-20 01:32N 53°45' W 000°16'0 0.0
2015-Apr-20 00:32N 53°45' W 000°16'0 0.0
2015-Apr-19 23:32N 53°45' W 000°16'0 0.0
2015-Apr-19 22:32N 53°45' W 000°16'0 0.0
2015-Apr-19 21:29N 53°45' W 000°16'0 0.0
2015-Apr-19 20:32N 53°45' W 000°16'0 0.0
2015-Apr-19 19:32N 53°45' W 000°16'0 0.0
2015-Apr-19 18:32N 53°45' W 000°16'0 0.0
2015-Apr-19 17:32N 53°45' W 000°16'0 0.0
2015-Apr-19 16:32N 53°45' W 000°16'0 0.0
2015-Apr-19 15:32N 53°45' W 000°16'0 0.0
2015-Apr-19 14:32N 53°45' W 000°16'0 0.0
2015-Apr-19 13:32N 53°45' W 000°16'0 0.0
2015-Apr-19 12:32N 53°45' W 000°16'0 0.0
2015-Apr-19 11:32N 53°45' W 000°16'0 0.0
2015-Apr-19 10:32N 53°45' W 000°16'0 0.0
2015-Apr-19 09:32N 53°45' W 000°16'0 0.0
2015-Apr-19 08:32N 53°45' W 000°16'0 0.0
2015-Apr-19 07:32N 53°45' W 000°16'0 0.0
2015-Apr-19 06:32N 53°45' W 000°16'0 0.0
2015-Apr-19 05:32N 53°45' W 000°16'0 0.0
2015-Apr-19 04:32N 53°45' W 000°16'0 0.0
2015-Apr-19 03:32N 53°45' W 000°16'0 0.0
2015-Apr-19 02:33N 53°45' W 000°16'0 0.0
2015-Apr-19 01:32N 53°45' W 000°16'0 0.0
2015-Apr-19 00:29N 53°45' W 000°16'0 0.0
2015-Apr-18 23:32N 53°45' W 000°16'0 0.0
2015-Apr-18 22:32N 53°45' W 000°16'0 0.0
2015-Apr-18 21:29N 53°45' W 000°16'0 0.0
2015-Apr-18 20:32N 53°45' W 000°16'0 0.0
2015-Apr-18 19:32N 53°45' W 000°16'0 0.0
2015-Apr-18 18:32N 53°45' W 000°16'0 0.0
2015-Apr-18 17:33N 53°45' W 000°16'0 0.3
2015-Apr-18 16:34N 53°44' W 000°16'0 0.3
2015-Apr-18 15:33N 53°44' W 000°17'10 9.6
2015-Apr-18 14:33N 53°37' W 000°06'1111.2
2015-Apr-18 13:33N 53°33' E 000°12'  
Track history (hours):
 
Tides and Currents Weather Stations Pressure Air Temp Water Temp Dewpoint Dewpoint Depression Visibility Wind Speed Wind Dir Waves Ship Positions

Tina-c

Last reported at 2015-Apr-28 12:32 UTC. Time now 2015-Apr-28 15:57 UTC.
Position N 38°18' W 010°00'.

Length 99 m; draft 6.6 m.

Type: Cargo ship. MMSI: 235061987.

Date/timePositionNaut miles runAvg speedWind from/ knotsBaromVisibWave heightAir tempDewpointWater temp
2015-Apr-28 12:32N 38°18' W 010°00'13 9.9
2015-Apr-28 11:14N 38°31' W 010°04'1010.2
2015-Apr-28 10:12N 38°41' W 010°07'17 9.8
2015-Apr-28 08:31N 38°57' W 010°07'  
2015-Apr-24 12:33N 50°35' E 000°17'9 9.2
2015-Apr-24 11:32N 50°37' E 000°32'1010.2
2015-Apr-24 10:33N 50°43' E 000°45'1211.9
2015-Apr-24 09:31N 50°50' E 001°01'1312.4
2015-Apr-24 08:30N 50°58' E 001°16'1111.7
2015-Apr-24 07:33N 51°05' E 001°29'1010.1
2015-Apr-24 06:33N 51°12' E 001°42'9 9.2
2015-Apr-24 05:33N 51°19' E 001°50'9 8.9
2015-Apr-24 04:33N 51°27' E 001°56'10 9.9
2015-Apr-24 03:33N 51°35' E 002°07'1010.4
2015-Apr-24 02:33N 51°42' E 002°18'11311.1
2015-Apr-23 16:23N 53°07' E 004°20'2411.5
2015-Apr-23 14:16N 53°28' E 004°39'911.7
2015-Apr-23 13:32N 53°32' E 004°52'1111.0
2015-Apr-23 12:33N 53°35' E 005°10'10 9.9
2015-Apr-23 11:33N 53°39' E 005°26'9 9.3
2015-Apr-23 10:33N 53°41' E 005°40'10 9.4
2015-Apr-23 09:28N 53°45' E 005°57'4811.2
2015-Apr-23 05:10N 53°58' E 007°15'610.0
2015-Apr-23 04:33N 53°59' E 007°25'1111.2
2015-Apr-23 03:33N 54°02' E 007°44'1010.3
2015-Apr-23 02:33N 54°01' E 008°01'10 9.9
2015-Apr-23 01:31N 53°60' E 008°19'8 8.4
2015-Apr-23 00:33N 53°58' E 008°32'7 7.3
2015-Apr-22 23:33N 53°54' E 008°42'10 9.8
2015-Apr-22 22:33N 53°51' E 008°58'1212.1
2015-Apr-22 21:33N 53°52' E 009°18'1313.0
2015-Apr-22 20:33N 53°41' E 009°31'1212.2
2015-Apr-22 19:33N 53°34' E 009°47'7 7.0
2015-Apr-22 18:34N 53°30' E 009°57'0 0.0
2015-Apr-22 17:33N 53°30' E 009°57'0 0.0
2015-Apr-22 16:33N 53°30' E 009°57'0 0.0
2015-Apr-22 15:33N 53°30' E 009°57'0 0.0
2015-Apr-22 14:33N 53°30' E 009°57'0 0.0
2015-Apr-22 13:33N 53°30' E 009°57'0 0.0
2015-Apr-22 12:33N 53°30' E 009°57'0 0.0
2015-Apr-22 11:33N 53°30' E 009°57'0 0.0
2015-Apr-22 10:33N 53°30' E 009°57'0 0.0
2015-Apr-22 09:33N 53°30' E 009°57'0 0.0
2015-Apr-22 08:34N 53°30' E 009°57'3 2.8
2015-Apr-22 07:33N 53°32' E 009°54'9 9.1
2015-Apr-22 06:33N 53°34' E 009°39'1111.3
2015-Apr-22 05:33N 53°43' E 009°28'1212.3
2015-Apr-22 04:33N 53°53' E 009°14'1312.5
2015-Apr-22 03:33N 53°50' E 008°53'1211.7
2015-Apr-22 02:33N 53°57' E 008°37'1212.6
2015-Apr-22 01:33N 53°59' E 008°16'1211.9
2015-Apr-22 00:33N 54°02' E 007°56'1312.9
2015-Apr-21 23:33N 54°08' E 007°37'1211.4
2015-Apr-21 22:32N 54°09' E 007°17'4212.4
2015-Apr-21 19:09N 54°07' E 006°05'711.5
2015-Apr-21 18:33N 54°07' E 005°54'1111.0
2015-Apr-21 17:33N 54°05' E 005°35'1110.7
2015-Apr-21 16:33N 54°04' E 005°17'1210.7
2015-Apr-21 15:27N 54°02' E 004°57'14211.7
2015-Apr-21 03:19N 53°37' E 000°60'911.9
2015-Apr-21 02:33N 53°35' E 000°45'1211.9
2015-Apr-21 01:34N 53°33' E 000°25'1110.6
2015-Apr-21 00:34N 53°33' E 000°07'1211.8
2015-Apr-20 23:34N 53°38' W 000°11'7 7.0
2015-Apr-20 22:32N 53°44' W 000°16'0 0.3
2015-Apr-20 21:32N 53°45' W 000°16'0 0.0
2015-Apr-20 20:32N 53°45' W 000°16'0 0.0
2015-Apr-20 19:32N 53°45' W 000°16'0 0.0
2015-Apr-20 18:32N 53°45' W 000°16'0 0.0
2015-Apr-20 17:32N 53°45' W 000°16'0 0.0
2015-Apr-20 16:32N 53°45' W 000°16'0 0.0
2015-Apr-20 15:32N 53°45' W 000°16'0 0.0
2015-Apr-20 14:29N 53°45' W 000°16'0 0.0
2015-Apr-20 13:32N 53°45' W 000°16'0 0.0
2015-Apr-20 12:32N 53°45' W 000°16'0 0.0
2015-Apr-20 11:32N 53°45' W 000°16'0 0.0
2015-Apr-20 10:32N 53°45' W 000°16'0 0.0
2015-Apr-20 09:32N 53°45' W 000°16'0 0.0
2015-Apr-20 08:32N 53°45' W 000°16'0 0.0
2015-Apr-20 07:32N 53°45' W 000°16'0 0.0
2015-Apr-20 06:32N 53°45' W 000°16'0 0.0
2015-Apr-20 05:32N 53°45' W 000°16'0 0.0
2015-Apr-20 04:32N 53°45' W 000°16'0 0.0
2015-Apr-20 03:32N 53°45' W 000°16'0 0.0
2015-Apr-20 02:26N 53°45' W 000°16'0 0.0
2015-Apr-20 01:32N 53°45' W 000°16'0 0.0
2015-Apr-20 00:32N 53°45' W 000°16'0 0.0
2015-Apr-19 23:32N 53°45' W 000°16'0 0.0
2015-Apr-19 22:32N 53°45' W 000°16'0 0.0
2015-Apr-19 21:29N 53°45' W 000°16'0 0.0
2015-Apr-19 20:32N 53°45' W 000°16'0 0.0
2015-Apr-19 19:32N 53°45' W 000°16'0 0.0
2015-Apr-19 18:32N 53°45' W 000°16'0 0.0
2015-Apr-19 17:32N 53°45' W 000°16'0 0.0
2015-Apr-19 16:32N 53°45' W 000°16'0 0.0
2015-Apr-19 15:32N 53°45' W 000°16'0 0.0
2015-Apr-19 14:32N 53°45' W 000°16'0 0.0
2015-Apr-19 13:32N 53°45' W 000°16'0 0.0
2015-Apr-19 12:32N 53°45' W 000°16'0 0.0
2015-Apr-19 11:32N 53°45' W 000°16'0 0.0
2015-Apr-19 10:32N 53°45' W 000°16'0 0.0
2015-Apr-19 09:32N 53°45' W 000°16'0 0.0
2015-Apr-19 08:32N 53°45' W 000°16'0 0.0
2015-Apr-19 07:32N 53°45' W 000°16'0 0.0
2015-Apr-19 06:32N 53°45' W 000°16'0 0.0
2015-Apr-19 05:32N 53°45' W 000°16'0 0.0
2015-Apr-19 04:32N 53°45' W 000°16'0 0.0
2015-Apr-19 03:32N 53°45' W 000°16'0 0.0
2015-Apr-19 02:33N 53°45' W 000°16'0 0.0
2015-Apr-19 01:32N 53°45' W 000°16'0 0.0
2015-Apr-19 00:29N 53°45' W 000°16'0 0.0
2015-Apr-18 23:32N 53°45' W 000°16'0 0.0
2015-Apr-18 22:32N 53°45' W 000°16'0 0.0
2015-Apr-18 21:29N 53°45' W 000°16'0 0.0
2015-Apr-18 20:32N 53°45' W 000°16'0 0.0
2015-Apr-18 19:32N 53°45' W 000°16'0 0.0
2015-Apr-18 18:32N 53°45' W 000°16'0 0.0
2015-Apr-18 17:33N 53°45' W 000°16'0 0.3
2015-Apr-18 16:34N 53°44' W 000°16'0 0.3
2015-Apr-18 15:33N 53°44' W 000°17'10 9.6
2015-Apr-18 14:33N 53°37' W 000°06'1111.2
2015-Apr-18 13:33N 53°33' E 000°12'  

Dump ship's entire track history